Ditchingham, United Kingdom
Current Conditions -  °F | °C
As of 9:50 PM on Wednesday 28 Jan 2015 (Local Time) from EGSH Reporting Station
Few Clouds Few Clouds  
Wind Chill: 24°   Ceiling: Unl
Heat Index: 36°   Visibility: 6mi
Dew Point: 28°   Wind: 22mph
Humidity: 75%   Direction: 240°WSW
Pressure: 29.38"   Gusts: NA
Location:  52.47°N, 1.44°E
Report Text: EGSH 282150Z 24019KT 9999 FEW040 02/M02 Q0995 NOSIG
Loading
Personal Weather Stations






























Interactive Weather Map New forecast layout! Learn more

10-Day Weather Forecast

Advertisements
Track Severe Weather on mobile